Time;durP1;ratioP1;P1;durP2;ratioP2;P2;SDS_P1;SDS_P2;PMS_P1;PMS_P2;Temp;Humidity;BMP_temperature;BMP_pressure;BME280_temperature;BME280_humidity;BME280_pressure;Samples;Min_cycle;Max_cycle;Signal;HPM_P1;HPM_P2
2022/02/28 00:02:01;;;;;;;5.30;2.60;;;;;9.70;102880.00;;;;5036577;28;20188;-80
2022/02/28 00:04:29;;;;;;;4.40;2.65;;;;;9.70;102878.00;;;;5028528;28;20199;-80
2022/02/28 00:06:56;;;;;;;8.10;2.50;;;;;9.70;102877.00;;;;5033465;28;20203;-80
2022/02/28 00:09:24;;;;;;;4.15;2.88;;;;;9.70;102886.00;;;;5036491;28;20200;-80
2022/02/28 00:11:51;;;;;;;3.80;2.35;;;;;9.60;102887.00;;;;5041077;28;20651;-79
2022/02/28 00:14:21;;;;;;;3.75;2.53;;;;;9.60;102898.00;;;;5028344;28;20215;-80
2022/02/28 00:16:48;;;;;;;3.10;2.38;;;;;9.60;102890.00;;;;5035004;28;20192;-80
2022/02/28 00:19:16;;;;;;;5.85;3.22;;;;;9.60;102897.00;;;;5048019;28;20231;-80
2022/02/28 00:21:43;;;;;;;2.90;2.25;;;;;9.60;102897.00;;;;5047131;28;20203;-80
2022/02/28 00:24:10;;;;;;;4.63;2.45;;;;;9.60;102889.00;;;;5046731;28;20200;-80
2022/02/28 00:26:38;;;;;;;3.08;2.50;;;;;9.50;102883.00;;;;5048139;28;20189;-80
2022/02/28 00:29:05;;;;;;;2.95;1.98;;;;;9.50;102886.00;;;;5047988;28;20207;-79
2022/02/28 00:31:34;;;;;;;4.63;2.78;;;;;9.50;102886.00;;;;5039685;28;20204;-80
2022/02/28 00:34:01;;;;;;;5.20;2.65;;;;;9.50;102890.00;;;;5051844;28;20199;-79
2022/02/28 00:36:28;;;;;;;3.95;2.47;;;;;9.50;102896.00;;;;5055996;28;20642;-80
2022/02/28 00:38:56;;;;;;;3.80;2.42;;;;;9.50;102888.00;;;;5043766;28;20219;-79
2022/02/28 00:41:23;;;;;;;3.90;2.17;;;;;9.50;102889.00;;;;5047150;28;20673;-80
2022/02/28 00:43:51;;;;;;;3.42;2.30;;;;;9.40;102879.00;;;;5047348;28;20188;-80
2022/02/28 00:46:18;;;;;;;4.13;2.03;;;;;9.40;102887.00;;;;5029354;28;20202;-79
2022/02/28 00:48:48;;;;;;;3.55;2.55;;;;;9.40;102881.00;;;;5047832;28;20274;-80
2022/02/28 00:51:15;;;;;;;3.90;2.28;;;;;9.40;102886.00;;;;5033134;28;20200;-80
2022/02/28 00:53:42;;;;;;;3.63;2.45;;;;;9.30;102879.00;;;;5039180;28;20654;-80
2022/02/28 00:56:10;;;;;;;4.18;2.53;;;;;9.30;102883.00;;;;5046113;28;20196;-79
2022/02/28 00:58:37;;;;;;;4.10;1.98;;;;;9.30;102878.00;;;;5034821;28;20184;-79
2022/02/28 01:01:04;;;;;;;5.00;2.38;;;;;9.30;102875.00;;;;5041482;28;20196;-79
2022/02/28 01:03:32;;;;;;;3.75;2.63;;;;;9.20;102871.00;;;;5051420;28;20207;-79
2022/02/28 01:06:01;;;;;;;3.15;2.30;;;;;9.20;102863.00;;;;5050270;28;20200;-79
2022/02/28 01:08:28;;;;;;;3.42;2.35;;;;;9.20;102859.00;;;;5037788;28;20651;-80
2022/02/28 01:10:56;;;;;;;4.43;2.25;;;;;9.20;102859.00;;;;5041114;28;22189;-80
2022/02/28 01:13:23;;;;;;;3.78;2.20;;;;;9.20;102857.00;;;;5051325;28;20194;-80
2022/02/28 01:15:50;;;;;;;2.92;2.13;;;;;9.20;102852.00;;;;5045960;28;20192;-79
2022/02/28 01:18:18;;;;;;;3.55;2.47;;;;;9.20;102863.00;;;;5034582;28;20691;-79
2022/02/28 01:20:45;;;;;;;5.18;2.58;;;;;9.10;102861.00;;;;5045245;28;20234;-79
2022/02/28 01:23:14;;;;;;;3.83;2.63;;;;;9.10;102869.00;;;;5031068;28;20606;-79
2022/02/28 01:25:41;;;;;;;3.80;2.33;;;;;9.10;102864.00;;;;5031594;28;20192;-79
2022/02/28 01:28:09;;;;;;;3.72;2.15;;;;;9.10;102856.00;;;;5038902;28;20188;-79
2022/02/28 01:30:36;;;;;;;5.00;2.50;;;;;9.10;102860.00;;;;5046828;28;20204;-79
2022/02/28 01:33:04;;;;;;;3.47;2.35;;;;;9.00;102857.00;;;;5049883;28;20218;-79
2022/02/28 01:35:32;;;;;;;5.32;2.58;;;;;9.00;102859.00;;;;5047891;28;20212;-80
2022/02/28 01:37:59;;;;;;;3.95;2.53;;;;;9.00;102865.00;;;;5030664;28;20291;-79
2022/02/28 01:40:28;;;;;;;3.92;2.25;;;;;9.00;102860.00;;;;5030531;28;20278;-80
2022/02/28 01:42:56;;;;;;;4.80;2.58;;;;;9.00;102855.00;;;;5050930;28;20196;-79
2022/02/28 01:45:24;;;;;;;6.15;2.85;;;;;8.90;102861.00;;;;5057181;28;20203;-80
2022/02/28 01:47:53;;;;;;;2.67;2.20;;;;;8.90;102861.00;;;;5050530;28;20645;-79
2022/02/28 01:50:21;;;;;;;4.07;2.53;;;;;8.90;102864.00;;;;5049409;28;20214;-79
2022/02/28 01:52:49;;;;;;;3.63;2.78;;;;;8.90;102871.00;;;;5031991;28;20607;-80
2022/02/28 01:55:17;;;;;;;3.00;2.20;;;;;8.90;102870.00;;;;5033915;28;20318;-80
2022/02/28 01:57:46;;;;;;;3.03;2.10;;;;;8.80;102868.00;;;;5038221;28;20625;-80
2022/02/28 02:00:17;;;;;;;3.60;2.50;;;;;8.80;102874.00;;;;5030481;28;20227;-80
2022/02/28 02:02:45;;;;;;;3.55;2.30;;;;;8.80;102870.00;;;;5030376;28;20212;-79
2022/02/28 02:05:13;;;;;;;5.25;2.67;;;;;8.80;102873.00;;;;5034693;28;20242;-79
2022/02/28 02:07:41;;;;;;;4.57;2.97;;;;;8.80;102873.00;;;;5050489;28;20254;-79
2022/02/28 02:10:10;;;;;;;4.38;2.85;;;;;8.70;102864.00;;;;5047449;28;20204;-79
2022/02/28 02:12:39;;;;;;;3.97;2.30;;;;;8.70;102868.00;;;;5039894;28;20208;-79
2022/02/28 02:15:10;;;;;;;3.65;2.35;;;;;8.70;102877.00;;;;5036535;28;20283;-80
2022/02/28 02:17:37;;;;;;;5.60;2.78;;;;;8.70;102869.00;;;;5047518;28;20228;-80
2022/02/28 02:20:07;;;;;;;3.05;2.40;;;;;8.70;102873.00;;;;5034575;28;20270;-80
2022/02/28 02:22:34;;;;;;;3.95;2.40;;;;;8.60;102874.00;;;;5029740;28;20196;-80
2022/02/28 02:25:02;;;;;;;4.00;2.60;;;;;8.60;102876.00;;;;5037207;28;20191;-79
2022/02/28 02:27:29;;;;;;;4.07;2.58;;;;;8.60;102884.00;;;;5043332;28;20210;-79
2022/02/28 02:29:56;;;;;;;4.22;2.13;;;;;8.60;102879.00;;;;5034616;28;20196;-80
2022/02/28 02:32:25;;;;;;;3.83;2.72;;;;;8.50;102877.00;;;;5041907;28;20195;-80
2022/02/28 02:34:52;;;;;;;3.75;2.70;;;;;8.50;102873.00;;;;5039023;28;20250;-79
2022/02/28 02:37:22;;;;;;;6.20;2.45;;;;;8.50;102872.00;;;;5029428;28;20200;-80
2022/02/28 02:39:49;;;;;;;4.63;2.80;;;;;8.50;102871.00;;;;5042559;28;20227;-79
2022/02/28 02:42:16;;;;;;;3.63;2.33;;;;;8.50;102871.00;;;;5045679;28;20204;-80
2022/02/28 02:44:44;;;;;;;5.20;2.78;;;;;8.40;102865.00;;;;5048514;28;20199;-78
2022/02/28 02:47:11;;;;;;;4.10;2.70;;;;;8.40;102865.00;;;;5034165;28;20569;-79
2022/02/28 02:49:38;;;;;;;3.17;2.25;;;;;8.40;102871.00;;;;5048557;28;20212;-79
2022/02/28 02:52:06;;;;;;;3.95;2.75;;;;;8.40;102873.00;;;;5047949;28;20200;-79
2022/02/28 02:54:35;;;;;;;5.25;2.15;;;;;8.30;102873.00;;;;5051100;28;20584;-79
2022/02/28 02:57:03;;;;;;;4.35;2.63;;;;;8.30;102872.00;;;;5046693;28;20241;-80
2022/02/28 02:59:30;;;;;;;4.85;2.20;;;;;8.30;102874.00;;;;5029091;28;20235;-80
2022/02/28 03:01:57;;;;;;;4.25;2.40;;;;;8.20;102863.00;;;;5034463;28;20199;-80
2022/02/28 03:04:24;;;;;;;3.05;2.10;;;;;8.20;102869.00;;;;5043993;28;20195;-80
2022/02/28 03:06:52;;;;;;;3.00;2.08;;;;;8.20;102868.00;;;;5044892;28;20202;-79
2022/02/28 03:09:19;;;;;;;3.70;2.53;;;;;8.20;102862.00;;;;5045119;28;20295;-80
2022/02/28 03:11:50;;;;;;;3.72;2.22;;;;;8.10;102861.00;;;;5045460;28;20333;-80
2022/02/28 03:14:18;;;;;;;3.85;2.10;;;;;8.10;102853.00;;;;5044785;28;20397;-81
2022/02/28 03:16:45;;;;;;;3.17;2.25;;;;;8.10;102857.00;;;;5045278;28;20192;-81
2022/02/28 03:19:12;;;;;;;3.85;2.60;;;;;8.00;102853.00;;;;5035395;28;20219;-80
2022/02/28 03:21:40;;;;;;;4.13;2.28;;;;;8.00;102859.00;;;;5018446;28;20673;-80
2022/02/28 03:24:07;;;;;;;4.82;2.50;;;;;8.00;102857.00;;;;5035064;28;20280;-80
2022/02/28 03:26:35;;;;;;;3.42;2.47;;;;;8.00;102858.00;;;;5033391;28;20223;-80
2022/02/28 03:29:03;;;;;;;3.88;2.33;;;;;7.90;102864.00;;;;5019774;28;21601;-80
2022/02/28 03:31:30;;;;;;;2.70;2.00;;;;;7.90;102858.00;;;;5029734;28;20197;-80
2022/02/28 03:33:58;;;;;;;4.40;2.65;;;;;7.90;102857.00;;;;5031369;28;20196;-81
2022/02/28 03:36:25;;;;;;;2.92;2.25;;;;;7.90;102859.00;;;;5036391;28;20204;-80
2022/02/28 03:38:53;;;;;;;3.97;2.88;;;;;7.80;102852.00;;;;5020179;28;20220;-80
2022/02/28 03:41:21;;;;;;;3.10;2.40;;;;;7.80;102856.00;;;;5024710;28;20228;-80
2022/02/28 03:43:48;;;;;;;3.83;2.35;;;;;7.80;102862.00;;;;5027771;28;20211;-80
2022/02/28 03:46:17;;;;;;;3.45;2.40;;;;;7.80;102850.00;;;;5019279;28;20196;-80
2022/02/28 03:48:44;;;;;;;3.53;2.25;;;;;7.80;102853.00;;;;5019138;28;20221;-79
2022/02/28 03:51:11;;;;;;;4.13;2.42;;;;;7.70;102856.00;;;;5021766;28;20234;-80
2022/02/28 03:53:39;;;;;;;4.43;2.53;;;;;7.70;102857.00;;;;5027584;28;20189;-80
2022/02/28 03:56:07;;;;;;;3.90;2.00;;;;;7.70;102859.00;;;;5027225;28;20199;-80
2022/02/28 03:58:38;;;;;;;2.97;2.13;;;;;7.70;102857.00;;;;5018666;28;20240;-80
2022/02/28 04:01:05;;;;;;;4.40;2.63;;;;;7.60;102855.00;;;;5016693;28;20797;-80
2022/02/28 04:03:34;;;;;;;4.80;2.50;;;;;7.60;102858.00;;;;5023527;28;20215;-80
2022/02/28 04:06:02;;;;;;;2.97;2.10;;;;;7.60;102846.00;;;;5017898;28;20197;-80
2022/02/28 04:08:29;;;;;;;4.30;2.35;;;;;7.60;102854.00;;;;5019495;28;20197;-80
2022/02/28 04:10:56;;;;;;;4.15;2.50;;;;;7.60;102849.00;;;;5008892;28;20204;-80
2022/02/28 04:13:23;;;;;;;4.50;2.50;;;;;7.60;102848.00;;;;5011539;28;20205;-81
2022/02/28 04:15:51;;;;;;;3.13;2.10;;;;;7.50;102857.00;;;;5027385;28;20197;-80
2022/02/28 04:18:18;;;;;;;4.05;1.90;;;;;7.50;102852.00;;;;5037568;28;20227;-81
2022/02/28 04:20:47;;;;;;;5.57;2.78;;;;;7.50;102850.00;;;;5043706;28;20571;-81
2022/02/28 04:23:15;;;;;;;6.38;2.13;;;;;7.50;102849.00;;;;5044603;28;20390;-81
2022/02/28 04:25:46;;;;;;;4.43;2.30;;;;;7.50;102850.00;;;;5044422;28;20203;-81
2022/02/28 04:28:13;;;;;;;3.38;2.30;;;;;7.50;102845.00;;;;5044515;28;20210;-81
2022/02/28 04:30:40;;;;;;;2.70;1.88;;;;;7.40;102840.00;;;;5042583;28;20721;-81
2022/02/28 04:33:08;;;;;;;2.88;2.10;;;;;7.40;102847.00;;;;5043652;28;20238;-80
2022/02/28 04:35:35;;;;;;;4.38;2.17;;;;;7.40;102840.00;;;;5046567;28;20196;-78
2022/02/28 04:38:05;;;;;;;4.28;2.13;;;;;7.40;102844.00;;;;5048962;28;20937;-78
2022/02/28 04:40:32;;;;;;;3.30;2.20;;;;;7.40;102835.00;;;;5049266;28;20697;-79
2022/02/28 04:42:59;;;;;;;4.15;2.30;;;;;7.40;102840.00;;;;5045842;28;20286;-79
2022/02/28 04:45:27;;;;;;;4.63;2.40;;;;;7.40;102836.00;;;;5047480;28;20207;-79
2022/02/28 04:47:55;;;;;;;3.53;2.20;;;;;7.40;102836.00;;;;5044815;28;20188;-80
2022/02/28 04:50:22;;;;;;;3.97;2.55;;;;;7.40;102838.00;;;;5044685;28;20200;-80
2022/02/28 04:52:50;;;;;;;4.88;2.85;;;;;7.40;102833.00;;;;5042640;28;20200;-79
2022/02/28 04:55:22;;;;;;;5.40;2.72;;;;;7.40;102840.00;;;;5042592;28;20254;-79
2022/02/28 04:57:49;;;;;;;3.20;2.55;;;;;7.40;102842.00;;;;5047965;28;20188;-79
2022/02/28 05:00:17;;;;;;;2.80;2.20;;;;;7.40;102829.00;;;;5051043;28;20307;-79
2022/02/28 05:02:44;;;;;;;4.07;2.45;;;;;7.40;102833.00;;;;5043538;28;20204;-80
2022/02/28 05:05:12;;;;;;;3.30;2.25;;;;;7.40;102833.00;;;;5048618;28;20830;-80
2022/02/28 05:07:40;;;;;;;3.92;2.15;;;;;7.40;102837.00;;;;5040792;28;20350;-79
2022/02/28 05:10:08;;;;;;;4.47;2.38;;;;;7.40;102838.00;;;;5031607;28;20196;-80
2022/02/28 05:12:36;;;;;;;4.32;2.30;;;;;7.40;102831.00;;;;5041800;28;20203;-79
2022/02/28 05:15:04;;;;;;;2.53;1.98;;;;;7.30;102832.00;;;;5049081;28;20192;-79
2022/02/28 05:17:31;;;;;;;5.35;2.45;;;;;7.30;102837.00;;;;5050146;28;20277;-80
2022/02/28 05:19:59;;;;;;;3.63;2.28;;;;;7.30;102836.00;;;;5037497;28;20192;-80
2022/02/28 05:22:26;;;;;;;4.88;2.45;;;;;7.30;102838.00;;;;5031183;28;20200;-79
2022/02/28 05:24:53;;;;;;;4.07;2.30;;;;;7.30;102840.00;;;;5041540;28;20192;-80
2022/02/28 05:27:21;;;;;;;4.10;2.50;;;;;7.30;102842.00;;;;5051680;28;20194;-79
2022/02/28 05:29:50;;;;;;;3.25;1.95;;;;;7.30;102833.00;;;;5050852;28;20277;-80
2022/02/28 05:32:18;;;;;;;4.93;2.47;;;;;7.30;102841.00;;;;5036190;28;20199;-80
2022/02/28 05:34:45;;;;;;;4.82;2.67;;;;;7.30;102837.00;;;;5042799;28;20215;-79
2022/02/28 05:37:12;;;;;;;2.70;2.10;;;;;7.30;102841.00;;;;5048875;28;20665;-80
2022/02/28 05:39:39;;;;;;;5.85;2.47;;;;;7.30;102838.00;;;;5050569;28;20195;-80
2022/02/28 05:42:07;;;;;;;3.08;2.10;;;;;7.20;102836.00;;;;5048392;28;20693;-79
2022/02/28 05:44:34;;;;;;;3.10;2.30;;;;;7.30;102837.00;;;;5049575;28;20584;-79
2022/02/28 05:47:04;;;;;;;3.72;2.83;;;;;7.20;102831.00;;;;5036488;28;20195;-79
2022/02/28 05:49:32;;;;;;;6.47;2.60;;;;;7.20;102835.00;;;;5049589;28;20719;-79
2022/02/28 05:51:59;;;;;;;4.43;2.67;;;;;7.20;102832.00;;;;5048761;28;20215;-79
2022/02/28 05:54:26;;;;;;;6.47;2.90;;;;;7.20;102836.00;;;;5049756;28;20200;-79
2022/02/28 05:56:54;;;;;;;3.13;2.50;;;;;7.20;102841.00;;;;5049740;28;20187;-79
2022/02/28 05:59:21;;;;;;;4.85;2.40;;;;;7.20;102835.00;;;;5046075;28;20562;-79
2022/02/28 06:01:48;;;;;;;5.38;3.13;;;;;7.20;102834.00;;;;5044965;28;20238;-79
2022/02/28 06:04:17;;;;;;;4.25;2.55;;;;;7.20;102832.00;;;;5044827;28;20674;-80
2022/02/28 06:06:44;;;;;;;4.45;2.70;;;;;7.20;102834.00;;;;5043488;28;20191;-79
2022/02/28 06:09:15;;;;;;;4.65;3.20;;;;;7.10;102840.00;;;;5043255;28;20204;-79
2022/02/28 06:11:45;;;;;;;3.72;2.53;;;;;7.20;102846.00;;;;5037489;28;20199;-79
2022/02/28 06:14:13;;;;;;;3.65;2.38;;;;;7.20;102846.00;;;;5041647;28;20611;-80
2022/02/28 06:16:40;;;;;;;4.35;2.88;;;;;7.20;102855.00;;;;5038063;28;20212;-82
2022/02/28 06:19:07;;;;;;;3.88;2.67;;;;;7.10;102859.00;;;;5035830;28;20637;-81
2022/02/28 06:21:36;;;;;;;4.30;2.83;;;;;7.10;102852.00;;;;5037405;28;20235;-80
2022/02/28 06:24:03;;;;;;;5.05;3.30;;;;;7.10;102854.00;;;;5047737;28;20207;-80
2022/02/28 06:26:30;;;;;;;4.63;2.80;;;;;7.10;102859.00;;;;5052871;28;20196;-80
2022/02/28 06:28:58;;;;;;;4.80;3.25;;;;;7.10;102856.00;;;;5058554;28;20688;-80
2022/02/28 06:31:29;;;;;;;4.68;3.08;;;;;7.10;102863.00;;;;5048428;28;20203;-79
2022/02/28 06:33:56;;;;;;;4.30;3.13;;;;;7.10;102863.00;;;;5029497;28;20212;-79
2022/02/28 06:36:23;;;;;;;6.13;3.72;;;;;7.10;102872.00;;;;5029870;28;20201;-79
2022/02/28 06:38:52;;;;;;;5.93;3.03;;;;;7.10;102877.00;;;;5029886;28;20212;-79
2022/02/28 06:41:19;;;;;;;4.38;2.78;;;;;7.10;102875.00;;;;5033261;28;20259;-79
2022/02/28 06:43:46;;;;;;;4.13;3.10;;;;;7.10;102877.00;;;;5049586;28;20245;-79
2022/02/28 06:46:13;;;;;;;4.20;3.05;;;;;7.10;102878.00;;;;5049291;28;20585;-79
2022/02/28 06:48:40;;;;;;;3.78;3.00;;;;;7.10;102883.00;;;;5049253;28;20342;-79
2022/02/28 06:51:08;;;;;;;4.72;2.55;;;;;7.10;102877.00;;;;5049327;28;20207;-79
2022/02/28 06:53:35;;;;;;;4.50;2.55;;;;;7.10;102880.00;;;;5048725;28;20658;-79
2022/02/28 06:56:04;;;;;;;4.43;2.97;;;;;7.10;102880.00;;;;5049222;28;20200;-79
2022/02/28 06:58:31;;;;;;;4.50;2.90;;;;;7.10;102890.00;;;;5040829;28;20203;-79
2022/02/28 07:00:59;;;;;;;4.75;3.03;;;;;7.10;102883.00;;;;5047648;28;20231;-79
2022/02/28 07:03:26;;;;;;;4.03;2.92;;;;;7.20;102879.00;;;;5048115;28;20211;-79
2022/02/28 07:05:57;;;;;;;4.60;3.33;;;;;7.20;102870.00;;;;5049216;28;20191;-79
2022/02/28 07:08:26;;;;;;;4.93;3.63;;;;;7.20;102869.00;;;;5047573;28;20278;-79
2022/02/28 07:10:54;;;;;;;7.30;3.45;;;;;7.20;102878.00;;;;5048250;28;20211;-79
2022/02/28 07:13:24;;;;;;;4.85;3.58;;;;;7.20;102875.00;;;;5049020;28;20204;-79
2022/02/28 07:15:52;;;;;;;4.97;3.58;;;;;7.30;102884.00;;;;5047934;28;20211;-79
2022/02/28 07:18:19;;;;;;;5.55;3.40;;;;;7.30;102895.00;;;;5048241;28;20326;-79
2022/02/28 07:20:46;;;;;;;5.60;3.40;;;;;7.30;102889.00;;;;5049147;28;20227;-79
2022/02/28 07:23:14;;;;;;;6.80;3.92;;;;;7.40;102895.00;;;;5048754;28;20206;-79
2022/02/28 07:25:41;;;;;;;5.93;4.00;;;;;7.40;102896.00;;;;5048645;28;20478;-79
2022/02/28 07:28:09;;;;;;;5.97;3.35;;;;;7.50;102889.00;;;;5048864;28;20665;-79
2022/02/28 07:30:37;;;;;;;4.93;3.53;;;;;7.50;102902.00;;;;5048723;28;20199;-79
2022/02/28 07:33:04;;;;;;;5.13;4.05;;;;;7.60;102907.00;;;;5056717;28;20201;-78
2022/02/28 07:35:32;;;;;;;6.20;3.63;;;;;7.60;102913.00;;;;5052272;28;20195;-79
2022/02/28 07:38:00;;;;;;;5.57;3.15;;;;;7.70;102921.00;;;;5048718;28;20295;-78
2022/02/28 07:40:27;;;;;;;6.15;3.83;;;;;7.70;102924.00;;;;5048986;28;20192;-79
2022/02/28 07:42:55;;;;;;;5.20;3.47;;;;;7.80;102916.00;;;;5048219;28;20704;-79
2022/02/28 07:45:22;;;;;;;5.95;3.40;;;;;7.90;102921.00;;;;5048225;28;20257;-78
2022/02/28 07:47:51;;;;;;;6.78;3.58;;;;;7.90;102919.00;;;;5047428;28;20287;-78
2022/02/28 07:50:18;;;;;;;4.65;3.38;;;;;8.00;102908.00;;;;5036609;28;20239;-79
2022/02/28 07:52:46;;;;;;;4.50;3.60;;;;;8.00;102924.00;;;;5028821;28;20197;-79
2022/02/28 07:55:13;;;;;;;4.82;3.67;;;;;8.10;102913.00;;;;5028497;28;20207;-79
2022/02/28 07:57:40;;;;;;;5.90;3.75;;;;;8.10;102923.00;;;;5035175;28;20657;-78
2022/02/28 08:00:09;;;;;;;8.43;4.75;;;;;8.20;102913.00;;;;5047979;28;20209;-79
2022/02/28 08:02:36;;;;;;;5.10;3.45;;;;;8.20;102922.00;;;;5047971;28;20588;-79
2022/02/28 08:05:05;;;;;;;6.13;3.67;;;;;8.30;102924.00;;;;5048123;28;20559;-79
2022/02/28 08:07:33;;;;;;;4.47;3.80;;;;;8.40;102915.00;;;;5048592;28;20214;-79
2022/02/28 08:10:00;;;;;;;5.18;3.58;;;;;8.50;102924.00;;;;5052238;28;20207;-79
2022/02/28 08:12:28;;;;;;;5.70;3.65;;;;;8.50;102930.00;;;;5051863;28;20633;-79
2022/02/28 08:14:56;;;;;;;4.63;3.30;;;;;8.60;102933.00;;;;5051747;28;20603;-79
2022/02/28 08:17:23;;;;;;;6.05;3.72;;;;;8.60;102933.00;;;;5052382;28;20234;-79
2022/02/28 08:19:50;;;;;;;5.53;3.65;;;;;8.70;102940.00;;;;5052053;28;20214;-78
2022/02/28 08:22:19;;;;;;;6.25;3.92;;;;;8.80;102936.00;;;;5052056;28;20906;-79
2022/02/28 08:24:46;;;;;;;5.68;3.42;;;;;8.90;102941.00;;;;5051615;28;20207;-79
2022/02/28 08:27:13;;;;;;;5.63;3.25;;;;;8.90;102937.00;;;;5051998;28;20218;-79
2022/02/28 08:29:40;;;;;;;5.18;3.60;;;;;9.00;102934.00;;;;5052015;28;20670;-79
2022/02/28 08:32:08;;;;;;;5.38;3.20;;;;;9.10;102933.00;;;;5051566;28;20236;-78
2022/02/28 08:34:36;;;;;;;5.50;3.45;;;;;9.10;102927.00;;;;5051306;28;20196;-79
2022/02/28 08:37:03;;;;;;;6.68;4.07;;;;;9.20;102931.00;;;;5052447;28;20207;-79
2022/02/28 08:39:32;;;;;;;6.22;3.70;;;;;9.30;102927.00;;;;5051870;28;20195;-79
2022/02/28 08:41:59;;;;;;;5.65;3.15;;;;;9.30;102929.00;;;;5051744;28;20206;-79
2022/02/28 08:44:26;;;;;;;5.30;3.30;;;;;9.40;102930.00;;;;5055378;28;20200;-79
2022/02/28 08:46:53;;;;;;;4.85;3.40;;;;;9.40;102928.00;;;;5066842;28;20191;-79
2022/02/28 08:49:20;;;;;;;4.68;3.47;;;;;9.50;102928.00;;;;5071327;28;20218;-79
2022/02/28 08:51:48;;;;;;;5.70;3.67;;;;;9.60;102921.00;;;;5071751;28;20219;-79
2022/02/28 08:54:16;;;;;;;4.50;2.97;;;;;9.70;102921.00;;;;5070664;28;20635;-79
2022/02/28 08:56:44;;;;;;;5.80;3.90;;;;;9.70;102931.00;;;;5071258;28;20668;-79
2022/02/28 08:59:11;;;;;;;5.53;3.95;;;;;9.80;102926.00;;;;5032822;28;20212;-79
2022/02/28 09:01:39;;;;;;;5.90;3.88;;;;;9.90;102929.00;;;;5031140;28;20281;-79
2022/02/28 09:04:06;;;;;;;6.25;3.88;;;;;10.00;102923.00;;;;5031409;28;20671;-79
2022/02/28 09:06:33;;;;;;;5.57;3.45;;;;;10.10;102922.00;;;;5030959;28;20215;-79
2022/02/28 09:09:00;;;;;;;4.90;3.80;;;;;10.20;102926.00;;;;5033525;28;20212;-79
2022/02/28 09:11:27;;;;;;;4.65;3.92;;;;;10.20;102927.00;;;;5050435;28;20223;-79
2022/02/28 09:13:57;;;;;;;5.43;3.50;;;;;10.30;102925.00;;;;5051121;28;20199;-78
2022/02/28 09:16:24;;;;;;;5.40;3.83;;;;;10.40;102907.00;;;;5050518;28;20208;-79
2022/02/28 09:18:51;;;;;;;5.47;3.90;;;;;10.50;102902.00;;;;5050480;28;20728;-79
2022/02/28 09:21:18;;;;;;;6.40;4.07;;;;;10.50;102903.00;;;;5051171;28;20200;-79
2022/02/28 09:23:45;;;;;;;5.30;3.90;;;;;10.60;102903.00;;;;5050789;28;20210;-79
2022/02/28 09:26:13;;;;;;;5.28;3.67;;;;;10.70;102897.00;;;;5050706;28;20195;-79
2022/02/28 09:28:40;;;;;;;5.88;3.88;;;;;10.80;102905.00;;;;5050885;28;20196;-79
2022/02/28 09:31:08;;;;;;;7.60;3.92;;;;;10.90;102910.00;;;;5050194;28;20688;-79
2022/02/28 09:33:36;;;;;;;7.07;3.85;;;;;10.90;102897.00;;;;5049954;28;20211;-79
2022/02/28 09:36:04;;;;;;;5.25;3.92;;;;;11.10;102896.00;;;;5050648;28;20188;-79
2022/02/28 09:38:31;;;;;;;6.07;4.00;;;;;11.10;102900.00;;;;5050684;28;20564;-79
2022/02/28 09:41:00;;;;;;;5.20;3.75;;;;;11.20;102888.00;;;;5050454;28;20203;-79
2022/02/28 09:43:27;;;;;;;7.20;3.28;;;;;11.30;102872.00;;;;5050349;28;20212;-79
2022/02/28 09:45:55;;;;;;;6.15;3.67;;;;;11.40;102878.00;;;;5050558;28;20208;-79
2022/02/28 09:48:25;;;;;;;5.53;3.83;;;;;11.50;102879.00;;;;5050275;28;20224;-79
2022/02/28 09:50:53;;;;;;;5.10;3.17;;;;;11.60;102878.00;;;;5050767;28;20199;-78
2022/02/28 09:53:20;;;;;;;3.92;3.40;;;;;11.60;102873.00;;;;5053428;28;20701;-79
2022/02/28 09:55:47;;;;;;;4.95;3.83;;;;;11.70;102868.00;;;;5066536;28;20199;-79
2022/02/28 09:58:15;;;;;;;5.57;3.67;;;;;11.80;102867.00;;;;5059080;28;20224;-79
2022/02/28 10:00:46;;;;;;;3.78;3.30;;;;;11.90;102865.00;;;;5049927;28;20218;-79
2022/02/28 10:03:13;;;;;;;6.78;3.33;;;;;12.00;102868.00;;;;5049212;28;20681;-79
2022/02/28 10:05:42;;;;;;;4.72;3.47;;;;;12.10;102865.00;;;;5048809;28;20195;-79
2022/02/28 10:08:14;;;;;;;4.82;3.65;;;;;12.10;102860.00;;;;5049775;28;20208;-79
2022/02/28 10:10:44;;;;;;;4.47;3.33;;;;;12.30;102871.00;;;;5049552;28;20215;-79
2022/02/28 10:13:11;;;;;;;4.68;3.40;;;;;12.40;102879.00;;;;5048879;28;20439;-79
2022/02/28 10:15:39;;;;;;;5.10;4.05;;;;;12.50;102881.00;;;;5049182;28;20207;-79
2022/02/28 10:18:07;;;;;;;5.18;3.03;;;;;12.60;102883.00;;;;5049026;28;20709;-78
2022/02/28 10:20:36;;;;;;;4.90;3.67;;;;;12.60;102886.00;;;;5049401;28;20192;-79
2022/02/28 10:23:06;;;;;;;3.60;2.95;;;;;12.70;102875.00;;;;5048695;28;20253;-79
2022/02/28 10:25:36;;;;;;;3.65;3.00;;;;;12.80;102883.00;;;;5048564;28;20199;-79
2022/02/28 10:28:15;;;;;;;4.70;3.38;;;;;12.80;102898.00;;;;5049082;28;20195;-79
2022/02/28 10:30:52;;;;;;;3.92;3.22;;;;;12.90;102898.00;;;;5047940;28;20246;-79
2022/02/28 10:33:20;;;;;;;4.63;3.10;;;;;13.10;102902.00;;;;5048925;28;20227;-79
2022/02/28 10:36:01;;;;;;;4.55;3.20;;;;;13.10;102901.00;;;;5048510;28;20192;-79
2022/02/28 10:38:32;;;;;;;3.72;2.95;;;;;13.20;102906.00;;;;5048953;28;20733;-79
2022/02/28 10:40:59;;;;;;;3.55;2.78;;;;;13.20;102900.00;;;;5048385;28;20629;-79
2022/02/28 10:43:29;;;;;;;4.90;3.55;;;;;13.30;102901.00;;;;5048823;28;20697;-79
2022/02/28 10:45:58;;;;;;;5.40;3.20;;;;;13.40;102890.00;;;;5049085;28;20744;-79
2022/02/28 10:48:26;;;;;;;4.70;3.20;;;;;13.50;102896.00;;;;5047893;28;20215;-79
2022/02/28 10:50:53;;;;;;;4.60;3.40;;;;;13.50;102900.00;;;;5048955;28;20211;-79
2022/02/28 10:53:23;;;;;;;4.53;3.50;;;;;13.60;102900.00;;;;5049304;28;20227;-79
2022/02/28 10:55:53;;;;;;;4.72;3.40;;;;;13.70;102889.00;;;;5048293;28;20207;-79
2022/02/28 10:58:24;;;;;;;6.18;4.00;;;;;13.80;102888.00;;;;5041071;28;20218;-79
2022/02/28 11:00:53;;;;;;;4.93;3.53;;;;;13.80;102879.00;;;;5062598;28;20198;-80
2022/02/28 11:03:21;;;;;;;6.45;3.35;;;;;13.90;102877.00;;;;5069181;28;20205;-80
2022/02/28 11:05:56;;;;;;;6.82;3.35;;;;;13.90;102895.00;;;;5068737;28;20203;-79
2022/02/28 11:08:25;;;;;;;5.70;3.35;;;;;14.00;102897.00;;;;5068204;28;20206;-80
2022/02/28 11:10:55;;;;;;;5.03;3.97;;;;;14.10;102888.00;;;;5050290;28;20298;-79
2022/02/28 11:13:23;;;;;;;5.95;3.63;;;;;14.20;102887.00;;;;5047941;28;20231;-79
2022/02/28 11:15:50;;;;;;;6.43;4.03;;;;;14.30;102895.00;;;;5048677;28;20207;-79
2022/02/28 11:18:20;;;;;;;3.92;3.30;;;;;14.40;102897.00;;;;5047620;28;21072;-79
2022/02/28 11:20:49;;;;;;;4.72;3.10;;;;;14.40;102901.00;;;;5047941;28;20684;-79
2022/02/28 11:23:19;;;;;;;6.45;3.88;;;;;14.50;102883.00;;;;5047744;28;20192;-79
2022/02/28 11:25:47;;;;;;;4.05;3.40;;;;;14.60;102901.00;;;;5048118;28;20206;-79
2022/02/28 11:28:17;;;;;;;4.95;3.85;;;;;14.70;102889.00;;;;5047255;28;20318;-79
2022/02/28 11:30:45;;;;;;;4.28;3.17;;;;;14.70;102895.00;;;;5047352;28;20206;-79
2022/02/28 11:33:18;;;;;;;4.50;3.53;;;;;14.80;102891.00;;;;5047848;28;20219;-79
2022/02/28 11:35:49;;;;;;;5.63;3.55;;;;;14.90;102896.00;;;;5048371;28;20203;-79
2022/02/28 11:38:44;;;;;;;5.72;4.20;;;;;14.90;102903.00;;;;5047673;28;20242;-79
2022/02/28 11:41:12;;;;;;;3.70;3.30;;;;;15.00;102909.00;;;;5047287;28;20641;-79
2022/02/28 11:43:44;;;;;;;4.38;3.22;;;;;15.00;102902.00;;;;5048038;28;20242;-79
2022/02/28 11:46:17;;;;;;;5.35;3.58;;;;;15.10;102900.00;;;;5047777;28;20204;-80
2022/02/28 11:48:46;;;;;;;3.97;3.20;;;;;15.20;102899.00;;;;5047413;28;20238;-80
2022/02/28 11:51:36;;;;;;;4.68;3.35;;;;;15.10;102887.00;;;;5047950;28;20207;-80
2022/02/28 11:54:06;;;;;;;7.10;3.83;;;;;15.30;102887.00;;;;5041735;28;20223;-79
2022/02/28 11:56:55;;;;;;;4.40;3.42;;;;;15.30;102879.00;;;;5047833;28;20205;-80
2022/02/28 11:59:27;;;;;;;4.45;3.45;;;;;15.40;102880.00;;;;5047357;28;20987;-80
2022/02/28 12:02:01;;;;;;;8.45;3.50;;;;;15.50;102885.00;;;;5047672;28;20631;-80
2022/02/28 12:04:40;;;;;;;5.15;4.00;;;;;15.50;102881.00;;;;5046938;28;20692;-79
2022/02/28 12:07:10;;;;;;;4.40;3.22;;;;;15.60;102872.00;;;;5054511;28;20191;-80
2022/02/28 12:09:45;;;;;;;4.93;3.85;;;;;15.70;102865.00;;;;5067935;28;20202;-80
2022/02/28 12:12:14;;;;;;;4.72;3.58;;;;;15.70;102865.00;;;;5067431;28;20608;-79
2022/02/28 12:15:17;;;;;;;4.57;3.70;;;;;15.70;102859.00;;;;5067460;28;20238;-80
2022/02/28 12:17:53;;;;;;;4.82;3.35;;;;;15.80;102856.00;;;;5067618;28;20226;-79
2022/02/28 12:20:23;;;;;;;3.92;3.08;;;;;15.90;102852.00;;;;5067462;28;20199;-79
2022/02/28 12:23:25;;;;;;;5.93;4.22;;;;;15.80;102846.00;;;;5049899;28;20294;-79